createdAt,value
2017-05-31T00:01:01.701Z,19.20
2017-05-31T00:03:30.481Z,19.00
2017-05-31T00:06:00.162Z,19.10
2017-05-31T00:08:34.614Z,19.20
2017-05-31T00:11:03.405Z,19.20
2017-05-31T00:13:32.177Z,19.10
2017-05-31T00:16:00.969Z,18.90
2017-05-31T00:18:30.769Z,19.00
2017-05-31T00:20:59.541Z,18.90
2017-05-31T00:23:28.368Z,18.70
2017-05-31T00:25:57.157Z,18.70
2017-05-31T00:28:31.936Z,18.60
2017-05-31T00:31:00.689Z,18.60
2017-05-31T00:33:29.457Z,18.80
2017-05-31T00:36:00.181Z,18.80
2017-05-31T00:38:28.949Z,19.00
2017-05-31T00:41:01.800Z,19.00
2017-05-31T00:43:42.052Z,19.10
2017-05-31T00:46:12.828Z,19.10
2017-05-31T00:48:43.576Z,19.00
2017-05-31T00:51:12.366Z,18.90
2017-05-31T00:53:44.232Z,18.90
2017-05-31T00:56:13.012Z,18.90
2017-05-31T00:58:56.084Z,18.80
2017-05-31T01:01:28.276Z,18.60
2017-05-31T01:03:57.106Z,18.40
2017-05-31T01:06:29.133Z,18.40
2017-05-31T01:08:57.965Z,18.50
2017-05-31T01:11:27.740Z,18.60
2017-05-31T01:13:58.500Z,18.50
2017-05-31T01:16:27.285Z,18.30
2017-05-31T01:19:08.400Z,18.40
2017-05-31T01:21:42.904Z,18.30
2017-05-31T01:24:12.680Z,18.20
2017-05-31T01:26:41.467Z,18.20
2017-05-31T01:29:10.264Z,18.30
2017-05-31T01:31:43.387Z,18.30
2017-05-31T01:34:14.160Z,18.30
2017-05-31T01:36:46.896Z,18.40
2017-05-31T01:39:16.647Z,18.30
2017-05-31T01:41:47.308Z,18.30
2017-05-31T01:44:16.132Z,18.40
2017-05-31T01:46:44.920Z,18.20
2017-05-31T01:49:20.303Z,18.00
2017-05-31T01:51:54.988Z,17.90
2017-05-31T01:54:24.736Z,17.90
2017-05-31T01:56:53.520Z,17.90
2017-05-31T01:59:34.063Z,17.90
2017-05-31T02:02:06.775Z,17.50
2017-05-31T02:04:37.527Z,17.50
2017-05-31T02:07:17.227Z,17.60
2017-05-31T02:09:49.235Z,17.70
2017-05-31T02:12:19.019Z,17.90
2017-05-31T02:14:47.800Z,18.00
2017-05-31T02:17:16.606Z,18.20
2017-05-31T02:19:46.299Z,18.20
2017-05-31T02:22:15.079Z,18.30
2017-05-31T02:24:44.852Z,18.30
2017-05-31T02:27:12.879Z,18.30
2017-05-31T02:29:42.615Z,18.20
2017-05-31T02:32:24.471Z,18.20
2017-05-31T02:34:53.267Z,17.90
2017-05-31T02:37:22.975Z,17.60
2017-05-31T02:39:51.783Z,17.50
2017-05-31T02:42:24.535Z,17.30
2017-05-31T02:45:05.911Z,17.30
2017-05-31T02:47:35.627Z,17.30
2017-05-31T02:50:12.475Z,17.30
2017-05-31T02:52:44.359Z,17.30
2017-05-31T02:55:17.174Z,17.30
2017-05-31T02:57:47.875Z,17.30
2017-05-31T03:00:16.663Z,17.20
2017-05-31T03:02:45.483Z,17.30
2017-05-31T03:05:14.271Z,17.20
2017-05-31T03:07:43.055Z,17.40
2017-05-31T03:10:11.852Z,17.60
2017-05-31T03:12:41.639Z,17.50
2017-05-31T03:15:10.410Z,17.50
2017-05-31T03:17:39.223Z,17.30
2017-05-31T03:20:08.003Z,17.10
2017-05-31T03:22:36.778Z,17.10
2017-05-31T03:25:05.634Z,17.20
2017-05-31T03:27:34.410Z,17.10
2017-05-31T03:30:03.166Z,17.30
2017-05-31T03:32:31.963Z,17.20
2017-05-31T03:35:00.742Z,17.40
2017-05-31T03:37:29.527Z,17.40
2017-05-31T03:39:58.363Z,17.50
2017-05-31T03:42:27.139Z,17.60
2017-05-31T03:44:55.914Z,17.70
2017-05-31T03:47:24.715Z,17.80
2017-05-31T03:49:53.494Z,17.90
2017-05-31T03:52:22.278Z,17.80
2017-05-31T03:54:51.061Z,18.00
2017-05-31T03:57:19.850Z,18.10
2017-05-31T03:59:52.046Z,18.20
2017-05-31T04:02:26.154Z,18.30
2017-05-31T04:04:57.834Z,18.30
2017-05-31T04:07:26.678Z,18.30
2017-05-31T04:09:55.486Z,18.30
2017-05-31T04:12:24.538Z,18.00
2017-05-31T04:14:53.310Z,17.80
2017-05-31T04:17:22.090Z,17.70
2017-05-31T04:19:50.910Z,17.50
2017-05-31T04:22:19.686Z,17.50
2017-05-31T04:24:48.493Z,17.30
2017-05-31T04:27:17.277Z,17.30
2017-05-31T04:29:46.058Z,17.20
2017-05-31T04:32:14.833Z,17.40
2017-05-31T04:34:43.637Z,17.40
2017-05-31T04:37:12.438Z,17.50
2017-05-31T04:42:19.218Z,18.00
2017-05-31T04:44:47.994Z,18.00
2017-05-31T04:47:16.785Z,17.90
2017-05-31T04:49:45.565Z,17.90
2017-05-31T04:52:14.342Z,17.80
2017-05-31T04:54:43.117Z,17.70
2017-05-31T04:57:11.925Z,17.70
2017-05-31T04:59:41.621Z,17.70
2017-05-31T05:02:10.453Z,17.70
2017-05-31T05:04:39.273Z,17.70
2017-05-31T05:07:08.049Z,17.70
2017-05-31T05:09:36.825Z,17.80
2017-05-31T05:12:05.694Z,17.80
2017-05-31T05:14:34.429Z,17.90
2017-05-31T05:17:03.229Z,18.00
2017-05-31T05:19:32.025Z,18.00
2017-05-31T05:22:00.806Z,18.00
2017-05-31T05:24:29.594Z,18.10
2017-05-31T05:26:58.409Z,18.20
2017-05-31T05:29:27.309Z,18.20
2017-05-31T05:31:56.049Z,18.30
2017-05-31T05:34:24.869Z,18.40
2017-05-31T05:36:53.645Z,18.50
2017-05-31T05:39:22.421Z,18.50
2017-05-31T05:41:51.269Z,18.50
2017-05-31T05:44:20.041Z,18.70
2017-05-31T05:46:48.821Z,18.70
2017-05-31T05:49:17.609Z,18.90
2017-05-31T05:51:47.397Z,19.00
2017-05-31T05:54:16.169Z,19.10
2017-05-31T05:56:44.961Z,19.00
2017-05-31T05:59:13.737Z,19.00
2017-05-31T06:01:42.521Z,19.20
2017-05-31T06:04:11.501Z,19.30
2017-05-31T06:06:40.264Z,19.10
2017-05-31T06:09:09.040Z,19.20
2017-05-31T06:11:37.825Z,19.50
2017-05-31T06:14:06.597Z,19.70
2017-05-31T06:16:36.501Z,19.50
2017-05-31T06:19:09.553Z,19.70
2017-05-31T06:21:39.701Z,19.70
2017-05-31T06:24:08.504Z,19.90
2017-05-31T06:26:37.285Z,19.80
2017-05-31T06:29:06.061Z,19.80
2017-05-31T06:31:34.881Z,20.00
2017-05-31T06:34:03.636Z,19.70
2017-05-31T06:36:32.412Z,19.70
2017-05-31T06:39:01.196Z,19.80
2017-05-31T06:41:29.980Z,19.80
2017-05-31T06:43:58.752Z,19.70
2017-05-31T06:46:27.696Z,19.60
2017-05-31T06:48:56.480Z,19.80
2017-05-31T06:51:25.257Z,19.80
2017-05-31T06:53:54.057Z,19.90
2017-05-31T06:56:22.833Z,20.10
2017-05-31T06:58:51.604Z,20.40
2017-05-31T07:01:20.425Z,20.40
2017-05-31T07:03:49.200Z,20.40
2017-05-31T07:06:17.984Z,20.20
2017-05-31T07:08:46.788Z,20.00
2017-05-31T07:11:15.556Z,20.10
2017-05-31T07:13:44.336Z,19.90
2017-05-31T07:16:13.136Z,20.00
2017-05-31T07:18:41.924Z,20.00
2017-05-31T07:21:10.696Z,20.20
2017-05-31T07:23:39.500Z,20.30
2017-05-31T07:26:08.288Z,20.20
2017-05-31T07:28:37.060Z,20.20
2017-05-31T07:31:05.856Z,20.10
2017-05-31T07:33:34.632Z,20.00
2017-05-31T07:36:03.404Z,19.90
2017-05-31T07:38:32.188Z,20.00
2017-05-31T07:41:00.968Z,20.20
2017-05-31T07:43:29.743Z,20.30
2017-05-31T07:45:58.544Z,20.50
2017-05-31T07:48:27.316Z,20.80
2017-05-31T07:50:56.092Z,21.10
2017-05-31T07:53:24.895Z,21.30
2017-05-31T07:55:53.664Z,21.40
2017-05-31T07:58:22.444Z,21.30
2017-05-31T08:00:51.244Z,21.10
2017-05-31T08:03:20.028Z,21.10
2017-05-31T08:05:48.804Z,21.10
2017-05-31T08:08:17.588Z,21.10
2017-05-31T08:10:46.388Z,21.30
2017-05-31T08:13:15.175Z,21.50
2017-05-31T08:15:43.931Z,21.50
2017-05-31T08:18:12.751Z,21.50
2017-05-31T08:20:41.527Z,21.60
2017-05-31T08:23:10.428Z,21.80
2017-05-31T08:25:39.159Z,22.00
2017-05-31T08:28:07.927Z,22.10
2017-05-31T08:30:36.711Z,21.90
2017-05-31T08:33:05.487Z,21.90
2017-05-31T08:35:34.263Z,22.10
2017-05-31T08:38:03.059Z,22.20
2017-05-31T08:40:31.831Z,22.30
2017-05-31T08:43:00.727Z,22.10
2017-05-31T08:45:29.503Z,22.50
2017-05-31T08:47:58.267Z,22.60
2017-05-31T08:50:27.031Z,22.50
2017-05-31T08:52:55.815Z,22.30
2017-05-31T08:55:24.579Z,22.50
2017-05-31T08:57:53.343Z,22.70
2017-05-31T09:00:22.123Z,22.40
2017-05-31T09:02:50.887Z,22.50
2017-05-31T09:05:19.647Z,22.40
2017-05-31T09:07:48.447Z,22.70
2017-05-31T09:10:17.224Z,23.20
2017-05-31T09:12:45.983Z,23.10
2017-05-31T09:15:14.763Z,23.30
2017-05-31T09:17:43.522Z,23.10
2017-05-31T09:20:12.322Z,23.10
2017-05-31T09:22:41.114Z,23.20
2017-05-31T09:25:09.875Z,23.50
2017-05-31T09:27:38.646Z,23.10
2017-05-31T09:30:07.418Z,23.20
2017-05-31T09:32:36.186Z,23.30
2017-05-31T09:35:04.946Z,23.40
2017-05-31T09:37:33.739Z,23.80
2017-05-31T09:40:02.498Z,23.80
2017-05-31T09:42:31.258Z,23.70
2017-05-31T09:45:00.042Z,23.70
2017-05-31T09:47:28.806Z,24.00
2017-05-31T09:49:57.566Z,24.40
2017-05-31T09:52:26.375Z,23.70
2017-05-31T09:54:55.098Z,23.90
2017-05-31T09:57:23.862Z,24.10
2017-05-31T09:59:52.642Z,23.80
2017-05-31T10:02:21.422Z,24.00
2017-05-31T10:04:50.186Z,24.60
2017-05-31T10:07:18.966Z,24.80
2017-05-31T10:09:47.726Z,24.90
2017-05-31T10:12:16.481Z,24.90
2017-05-31T10:14:46.273Z,24.80
2017-05-31T10:17:15.034Z,24.80
2017-05-31T10:19:43.798Z,24.90
2017-05-31T10:22:12.586Z,24.60
2017-05-31T10:24:41.350Z,24.60
2017-05-31T10:27:10.130Z,24.80
2017-05-31T10:29:38.913Z,25.00
2017-05-31T10:32:07.793Z,24.90
2017-05-31T10:34:36.517Z,24.70
2017-05-31T10:37:05.294Z,24.70
2017-05-31T10:39:34.061Z,24.80
2017-05-31T10:42:02.837Z,24.90
2017-05-31T10:44:31.605Z,24.70
2017-05-31T10:47:00.370Z,24.50
2017-05-31T10:49:29.134Z,24.80
2017-05-31T10:51:57.909Z,25.40
2017-05-31T10:54:26.686Z,25.60
2017-05-31T10:56:55.573Z,25.80
2017-05-31T10:59:24.333Z,25.40
2017-05-31T11:01:53.101Z,25.20
2017-05-31T11:04:21.861Z,25.00
2017-05-31T11:06:50.671Z,25.10
2017-05-31T11:09:19.446Z,24.80
2017-05-31T11:11:48.213Z,25.10
2017-05-31T11:14:17.013Z,25.40
2017-05-31T11:16:45.770Z,25.30
2017-05-31T11:19:14.541Z,25.30
2017-05-31T11:21:43.321Z,25.50
2017-05-31T11:24:12.081Z,25.70
2017-05-31T11:26:40.865Z,25.70
2017-05-31T11:29:09.656Z,25.80
2017-05-31T11:31:38.421Z,25.70
2017-05-31T11:34:07.189Z,25.70
2017-05-31T11:36:35.964Z,25.40
2017-05-31T11:39:04.752Z,25.50
2017-05-31T11:41:33.520Z,25.50
2017-05-31T11:44:02.301Z,25.70
2017-05-31T11:46:31.072Z,26.00
2017-05-31T11:48:59.848Z,26.20
2017-05-31T11:51:28.641Z,26.30
2017-05-31T11:53:57.412Z,26.30
2017-05-31T11:56:26.181Z,26.20
2017-05-31T11:58:54.978Z,26.10
2017-05-31T12:01:23.736Z,26.10
2017-05-31T12:03:52.512Z,25.90
2017-05-31T12:06:21.309Z,26.10
2017-05-31T12:08:50.076Z,26.10
2017-05-31T12:11:18.852Z,26.50
2017-05-31T12:13:47.652Z,26.70
2017-05-31T12:16:16.422Z,26.70
2017-05-31T12:18:45.252Z,26.80
2017-05-31T12:21:13.997Z,26.70
2017-05-31T12:23:42.760Z,26.90
2017-05-31T12:26:11.536Z,26.50
2017-05-31T12:28:40.332Z,26.30
2017-05-31T12:31:09.116Z,26.40
2017-05-31T12:33:37.980Z,26.70
2017-05-31T12:36:06.740Z,26.70
2017-05-31T12:38:35.512Z,26.80
2017-05-31T12:41:04.343Z,26.80
2017-05-31T12:43:33.088Z,27.00
2017-05-31T12:46:01.860Z,27.10
2017-05-31T12:48:30.640Z,27.30
2017-05-31T12:50:59.445Z,27.30
2017-05-31T12:53:28.224Z,26.80
2017-05-31T12:55:57.028Z,26.80
2017-05-31T12:58:25.856Z,27.00
2017-05-31T13:00:54.588Z,26.90
2017-05-31T13:03:23.352Z,27.20
2017-05-31T13:05:52.128Z,27.20
2017-05-31T13:08:20.900Z,27.30
2017-05-31T13:10:49.691Z,27.30
2017-05-31T13:13:18.487Z,27.30
2017-05-31T13:15:47.263Z,27.20
2017-05-31T13:18:16.027Z,27.40
2017-05-31T13:20:44.799Z,27.20
2017-05-31T13:23:14.520Z,27.00
2017-05-31T13:25:43.287Z,27.30
2017-05-31T13:28:12.067Z,27.10
2017-05-31T13:30:40.839Z,27.20
2017-05-31T13:33:09.663Z,27.10
2017-05-31T13:35:38.439Z,27.10
2017-05-31T13:38:07.207Z,27.00
2017-05-31T13:40:35.983Z,26.70
2017-05-31T13:43:04.783Z,27.00
2017-05-31T13:45:33.555Z,27.20
2017-05-31T13:48:02.324Z,27.00
2017-05-31T13:50:31.127Z,27.20
2017-05-31T13:52:59.904Z,27.30
2017-05-31T13:55:28.663Z,27.10
2017-05-31T13:57:57.467Z,27.10
2017-05-31T14:00:26.263Z,27.10
2017-05-31T14:02:55.059Z,27.10
2017-05-31T14:05:23.835Z,27.00
2017-05-31T14:07:52.599Z,27.00
2017-05-31T14:10:21.368Z,27.00
2017-05-31T14:12:50.171Z,27.00
2017-05-31T14:15:18.943Z,27.00
2017-05-31T14:17:47.719Z,27.30
2017-05-31T14:20:16.528Z,27.10
2017-05-31T14:22:45.295Z,27.10
2017-05-31T14:25:14.066Z,27.00
2017-05-31T14:27:42.839Z,27.00
2017-05-31T14:30:11.599Z,27.00
2017-05-31T14:32:40.379Z,27.20
2017-05-31T14:35:09.143Z,27.00
2017-05-31T14:37:37.914Z,27.10
2017-05-31T14:40:06.679Z,27.20
2017-05-31T14:42:35.471Z,27.20
2017-05-31T14:45:04.251Z,27.10
2017-05-31T14:47:33.259Z,27.00
2017-05-31T14:50:02.027Z,27.00
2017-05-31T14:52:30.786Z,27.00
2017-05-31T14:55:00.470Z,27.00
2017-05-31T14:57:29.239Z,26.90
2017-05-31T14:59:57.999Z,27.00
2017-05-31T15:02:26.759Z,26.80
2017-05-31T15:04:55.535Z,26.80
2017-05-31T15:07:24.303Z,26.80
2017-05-31T15:09:53.067Z,26.90
2017-05-31T15:12:21.854Z,26.80
2017-05-31T15:14:50.622Z,26.80
2017-05-31T15:17:19.383Z,26.90
2017-05-31T15:19:48.154Z,26.90
2017-05-31T15:22:16.918Z,27.10
2017-05-31T15:24:45.678Z,26.90
2017-05-31T15:27:14.448Z,26.80
2017-05-31T15:29:43.210Z,26.80
2017-05-31T15:32:11.970Z,26.80
2017-05-31T15:34:40.758Z,26.90
2017-05-31T15:37:09.518Z,26.80
2017-05-31T15:39:38.295Z,26.90
2017-05-31T15:42:07.059Z,27.20
2017-05-31T15:44:35.814Z,27.30
2017-05-31T15:47:04.646Z,27.00
2017-05-31T15:49:33.374Z,26.80
2017-05-31T15:52:02.138Z,26.60
2017-05-31T15:54:30.926Z,26.60
2017-05-31T15:56:59.714Z,26.60
2017-05-31T15:59:28.485Z,26.60
2017-05-31T16:01:57.249Z,26.70
2017-05-31T16:04:26.029Z,26.40
2017-05-31T16:06:54.794Z,26.40
2017-05-31T16:09:24.502Z,26.60
2017-05-31T16:11:53.277Z,26.50
2017-05-31T16:14:22.070Z,26.50
2017-05-31T16:16:50.819Z,26.70
2017-05-31T16:19:19.581Z,26.60
2017-05-31T16:21:48.390Z,26.50
2017-05-31T16:24:17.125Z,26.40
2017-05-31T16:26:45.913Z,26.50
2017-05-31T16:29:14.693Z,26.30
2017-05-31T16:31:43.449Z,26.20
2017-05-31T16:34:12.282Z,26.20
2017-05-31T16:36:41.045Z,26.30
2017-05-31T16:39:09.801Z,26.10
2017-05-31T16:41:38.577Z,26.10
2017-05-31T16:44:07.341Z,26.10
2017-05-31T16:46:36.101Z,26.20
2017-05-31T16:49:04.881Z,25.90
2017-05-31T16:51:33.825Z,25.90
2017-05-31T16:54:02.569Z,26.10
2017-05-31T16:56:31.337Z,26.00
2017-05-31T16:59:00.229Z,25.80
2017-05-31T17:01:28.989Z,25.80
2017-05-31T17:03:57.781Z,25.70
2017-05-31T17:06:26.557Z,25.80
2017-05-31T17:08:55.313Z,25.70
2017-05-31T17:11:24.101Z,25.90
2017-05-31T17:13:52.861Z,25.70
2017-05-31T17:16:21.625Z,25.50
2017-05-31T17:18:50.408Z,25.60
2017-05-31T17:21:19.189Z,25.50
2017-05-31T17:23:47.925Z,25.60
2017-05-31T17:26:16.696Z,25.50
2017-05-31T17:28:45.452Z,25.40
2017-05-31T17:31:14.213Z,25.20
2017-05-31T17:33:42.981Z,25.20
2017-05-31T17:36:11.744Z,25.30
2017-05-31T17:38:40.509Z,25.20
2017-05-31T17:41:09.285Z,25.10
2017-05-31T17:43:38.053Z,25.00
2017-05-31T17:46:07.785Z,25.10
2017-05-31T17:48:36.517Z,24.90
2017-05-31T17:51:05.281Z,25.00
2017-05-31T17:53:34.041Z,24.80
2017-05-31T17:56:02.809Z,24.70
2017-05-31T17:58:31.573Z,24.60
2017-05-31T18:01:00.336Z,24.60
2017-05-31T18:03:29.153Z,24.50
2017-05-31T18:06:04.704Z,24.50
2017-05-31T18:08:33.476Z,24.40
2017-05-31T18:11:02.272Z,24.30
2017-05-31T18:13:31.012Z,24.20
2017-05-31T18:15:59.811Z,24.20
2017-05-31T18:18:28.581Z,24.20
2017-05-31T18:20:57.344Z,24.10
2017-05-31T18:23:26.120Z,24.10
2017-05-31T18:25:54.896Z,24.00
2017-05-31T18:28:23.728Z,23.90
2017-05-31T18:30:52.483Z,23.80
2017-05-31T18:33:21.248Z,23.70
2017-05-31T18:35:50.092Z,23.70
2017-05-31T18:38:18.900Z,23.70
2017-05-31T18:40:47.668Z,23.70
2017-05-31T18:43:16.436Z,23.50
2017-05-31T18:45:45.208Z,23.40
2017-05-31T18:48:13.984Z,23.30
2017-05-31T18:50:42.816Z,23.30
2017-05-31T18:53:11.548Z,23.20
2017-05-31T18:55:40.315Z,23.10
2017-05-31T18:58:09.100Z,23.10
2017-05-31T19:00:37.900Z,23.00
2017-05-31T19:03:06.680Z,22.90
2017-05-31T19:05:35.447Z,22.80
2017-05-31T19:08:04.227Z,22.80
2017-05-31T19:10:32.979Z,22.80
2017-05-31T19:13:01.748Z,22.70
2017-05-31T19:15:30.544Z,22.50
2017-05-31T19:17:59.379Z,22.50
2017-05-31T19:20:28.200Z,22.50
2017-05-31T19:22:57.039Z,22.50
2017-05-31T19:25:25.935Z,22.40
2017-05-31T19:27:56.031Z,22.40
2017-05-31T19:30:24.851Z,22.20
2017-05-31T19:32:53.652Z,22.00
2017-05-31T19:35:22.415Z,21.90
2017-05-31T19:37:51.215Z,21.80
2017-05-31T19:40:19.995Z,21.70
2017-05-31T19:42:48.799Z,21.70
2017-05-31T19:45:17.583Z,21.60
2017-05-31T19:47:46.352Z,21.50
2017-05-31T19:50:15.127Z,21.50
2017-05-31T19:52:44.855Z,21.50
2017-05-31T19:55:13.627Z,21.50
2017-05-31T19:57:42.387Z,21.40
2017-05-31T20:00:11.167Z,21.30
2017-05-31T20:02:39.931Z,21.20
2017-05-31T20:05:08.704Z,21.20
2017-05-31T20:07:37.479Z,21.20
2017-05-31T20:10:06.255Z,21.20
2017-05-31T20:12:36.971Z,21.10
2017-05-31T20:15:05.735Z,21.00
2017-05-31T20:17:34.503Z,21.00
2017-05-31T20:20:04.258Z,20.90
2017-05-31T20:22:33.019Z,20.80
2017-05-31T20:25:02.759Z,20.70
2017-05-31T20:27:31.543Z,20.60
2017-05-31T20:30:00.314Z,20.60
2017-05-31T20:32:29.083Z,20.70
2017-05-31T20:34:57.862Z,20.60
2017-05-31T20:37:26.630Z,20.50
2017-05-31T20:39:55.398Z,20.50
2017-05-31T20:42:25.032Z,20.40
2017-05-31T20:44:53.794Z,20.40
2017-05-31T20:47:22.554Z,20.40
2017-05-31T20:49:51.350Z,20.50
2017-05-31T20:52:20.153Z,20.40
2017-05-31T20:54:48.943Z,20.30
2017-05-31T20:57:17.726Z,20.20
2017-05-31T20:59:46.754Z,20.00
2017-05-31T21:02:16.510Z,19.70
2017-05-31T21:04:45.291Z,19.70
2017-05-31T21:07:14.998Z,19.80
2017-05-31T21:09:43.774Z,19.80
2017-05-31T21:12:12.562Z,19.80
2017-05-31T21:14:41.326Z,19.80
2017-05-31T21:17:10.106Z,19.80
2017-05-31T21:19:38.882Z,19.90
2017-05-31T21:22:09.578Z,19.80
2017-05-31T21:24:39.290Z,19.70
2017-05-31T21:27:07.305Z,19.60
2017-05-31T21:29:36.077Z,19.50
2017-05-31T21:32:04.882Z,19.60
2017-05-31T21:34:33.653Z,19.60
2017-05-31T21:37:02.421Z,19.50
2017-05-31T21:39:31.261Z,19.40
2017-05-31T21:42:00.330Z,18.90
2017-05-31T21:44:30.102Z,18.90
2017-05-31T21:46:58.902Z,19.00
2017-05-31T21:49:27.677Z,19.00
2017-05-31T21:51:56.453Z,19.00
2017-05-31T21:54:25.230Z,19.00
2017-05-31T21:56:54.011Z,18.80
2017-05-31T21:59:22.785Z,18.30
2017-05-31T22:01:52.561Z,17.80
2017-05-31T22:04:21.330Z,17.70
2017-05-31T22:06:50.098Z,17.50
2017-05-31T22:09:18.881Z,17.20
2017-05-31T22:11:47.666Z,17.20
2017-05-31T22:14:16.445Z,17.30
2017-05-31T22:16:47.118Z,17.20
2017-05-31T22:19:15.970Z,17.30
2017-05-31T22:21:44.654Z,17.50
2017-05-31T22:24:13.433Z,17.40
2017-05-31T22:26:44.101Z,17.20
2017-05-31T22:29:13.042Z,16.60
2017-05-31T22:31:41.821Z,16.50
2017-05-31T22:34:10.596Z,16.70
2017-05-31T22:36:39.377Z,16.80
2017-05-31T22:39:08.161Z,16.70
2017-05-31T22:41:37.945Z,16.50
2017-05-31T22:44:06.754Z,16.60
2017-05-31T22:46:35.530Z,16.80
2017-05-31T22:49:05.197Z,16.90
2017-05-31T22:51:34.021Z,17.10
2017-05-31T22:54:02.802Z,17.20
2017-05-31T22:56:31.569Z,17.30
2017-05-31T22:59:00.378Z,17.40
2017-05-31T23:01:29.145Z,17.40
2017-05-31T23:03:57.929Z,17.40
2017-05-31T23:06:26.725Z,17.30
2017-05-31T23:08:55.568Z,17.30
2017-05-31T23:11:24.264Z,17.30
2017-05-31T23:13:53.080Z,17.20
2017-05-31T23:16:21.846Z,17.20
2017-05-31T23:18:50.620Z,17.10
2017-05-31T23:21:19.416Z,16.70
2017-05-31T23:23:48.164Z,16.40
2017-05-31T23:26:17.029Z,16.30
2017-05-31T23:28:45.799Z,16.40
2017-05-31T23:31:14.652Z,16.30
2017-05-31T23:33:43.420Z,16.00
2017-05-31T23:36:12.216Z,15.90
2017-05-31T23:38:40.225Z,15.90
2017-05-31T23:41:09.024Z,15.60
2017-05-31T23:43:37.804Z,15.40
2017-05-31T23:46:06.621Z,15.60
2017-05-31T23:48:35.381Z,15.90
2017-05-31T23:51:04.149Z,16.10
2017-05-31T23:53:32.936Z,16.20
2017-05-31T23:56:01.736Z,16.00
2017-05-31T23:58:30.532Z,16.10
